sensor_id;sensor_type;location;lat;lon;timestamp;pressure;altitude;pressure_sealevel;temperature;humidity
74542;BME280;63015;45.378;20.360;2023-12-07T00:01:36;100637.63;;;1.38;85.96
74542;BME280;63015;45.378;20.360;2023-12-07T00:03:37;100636.72;;;1.36;85.96
74542;BME280;63015;45.378;20.360;2023-12-07T00:05:38;100636.75;;;1.37;86.03
74542;BME280;63015;45.378;20.360;2023-12-07T00:07:38;100639.63;;;1.45;85.22
74542;BME280;63015;45.378;20.360;2023-12-07T00:09:39;100640.81;;;1.53;85.09
74542;BME280;63015;45.378;20.360;2023-12-07T00:11:40;100641.69;;;1.54;84.66
74542;BME280;63015;45.378;20.360;2023-12-07T00:13:41;100639.47;;;1.63;84.28
74542;BME280;63015;45.378;20.360;2023-12-07T00:15:41;100644.31;;;1.55;84.36
74542;BME280;63015;45.378;20.360;2023-12-07T00:17:42;100645.84;;;1.50;84.51
74542;BME280;63015;45.378;20.360;2023-12-07T00:19:43;100644.88;;;1.48;84.81
74542;BME280;63015;45.378;20.360;2023-12-07T00:21:43;100647.66;;;1.53;84.49
74542;BME280;63015;45.378;20.360;2023-12-07T00:23:44;100647.13;;;1.61;84.51
74542;BME280;63015;45.378;20.360;2023-12-07T00:25:44;100642.16;;;1.66;84.19
74542;BME280;63015;45.378;20.360;2023-12-07T00:27:46;100644.06;;;1.70;84.12
74542;BME280;63015;45.378;20.360;2023-12-07T00:29:46;100649.50;;;1.78;83.70
74542;BME280;63015;45.378;20.360;2023-12-07T00:31:47;100652.88;;;1.77;83.64
74542;BME280;63015;45.378;20.360;2023-12-07T00:33:47;100656.34;;;1.79;83.49
74542;BME280;63015;45.378;20.360;2023-12-07T00:35:48;100651.97;;;1.76;83.73
74542;BME280;63015;45.378;20.360;2023-12-07T00:37:49;100662.84;;;1.69;83.96
74542;BME280;63015;45.378;20.360;2023-12-07T00:39:50;100664.47;;;1.67;83.96
74542;BME280;63015;45.378;20.360;2023-12-07T00:41:50;100664.66;;;1.72;83.47
74542;BME280;63015;45.378;20.360;2023-12-07T00:43:51;100665.81;;;1.80;83.65
74542;BME280;63015;45.378;20.360;2023-12-07T00:45:51;100671.38;;;1.68;83.71
74542;BME280;63015;45.378;20.360;2023-12-07T00:47:52;100676.56;;;1.70;83.83
74542;BME280;63015;45.378;20.360;2023-12-07T00:49:53;100673.19;;;1.71;84.02
74542;BME280;63015;45.378;20.360;2023-12-07T00:51:53;100675.94;;;1.75;83.80
74542;BME280;63015;45.378;20.360;2023-12-07T00:53:54;100666.81;;;1.84;83.30
74542;BME280;63015;45.378;20.360;2023-12-07T00:55:54;100668.81;;;1.68;83.87
74542;BME280;63015;45.378;20.360;2023-12-07T00:57:55;100674.03;;;1.71;83.94
74542;BME280;63015;45.378;20.360;2023-12-07T00:59:55;100661.56;;;1.80;83.58
74542;BME280;63015;45.378;20.360;2023-12-07T01:01:56;100666.28;;;1.70;83.29
74542;BME280;63015;45.378;20.360;2023-12-07T01:03:56;100660.81;;;1.83;83.59
74542;BME280;63015;45.378;20.360;2023-12-07T01:05:57;100663.41;;;1.62;83.78
74542;BME280;63015;45.378;20.360;2023-12-07T01:07:58;100666.22;;;1.68;84.10
74542;BME280;63015;45.378;20.360;2023-12-07T01:09:58;100654.13;;;1.66;84.18
74542;BME280;63015;45.378;20.360;2023-12-07T01:11:59;100662.34;;;1.57;84.40
74542;BME280;63015;45.378;20.360;2023-12-07T01:13:59;100660.03;;;1.63;84.48
74542;BME280;63015;45.378;20.360;2023-12-07T01:16:00;100651.09;;;1.76;84.01
74542;BME280;63015;45.378;20.360;2023-12-07T01:18:00;100654.63;;;1.78;83.74
74542;BME280;63015;45.378;20.360;2023-12-07T01:20:01;100645.22;;;1.78;83.54
74542;BME280;63015;45.378;20.360;2023-12-07T01:22:04;100652.72;;;1.74;84.00
74542;BME280;63015;45.378;20.360;2023-12-07T01:24:04;100648.78;;;1.82;83.62
74542;BME280;63015;45.378;20.360;2023-12-07T01:26:05;100645.50;;;1.86;83.66
74542;BME280;63015;45.378;20.360;2023-12-07T01:28:07;100641.22;;;1.87;83.25
74542;BME280;63015;45.378;20.360;2023-12-07T01:30:08;100653.91;;;1.82;83.38
74542;BME280;63015;45.378;20.360;2023-12-07T01:32:08;100647.88;;;1.81;83.12
74542;BME280;63015;45.378;20.360;2023-12-07T01:34:10;100649.69;;;1.84;83.53
74542;BME280;63015;45.378;20.360;2023-12-07T01:36:11;100656.31;;;1.77;83.96
74542;BME280;63015;45.378;20.360;2023-12-07T01:38:12;100656.72;;;1.88;83.71
74542;BME280;63015;45.378;20.360;2023-12-07T01:40:13;100652.56;;;1.92;83.62
74542;BME280;63015;45.378;20.360;2023-12-07T01:42:15;100653.56;;;1.95;83.30
74542;BME280;63015;45.378;20.360;2023-12-07T01:44:15;100652.97;;;2.03;82.79
74542;BME280;63015;45.378;20.360;2023-12-07T01:46:16;100650.97;;;1.95;83.17
74542;BME280;63015;45.378;20.360;2023-12-07T01:48:17;100659.22;;;1.87;83.41
74542;BME280;63015;45.378;20.360;2023-12-07T01:50:19;100659.31;;;1.88;83.64
74542;BME280;63015;45.378;20.360;2023-12-07T01:52:26;100656.31;;;2.00;83.13
74542;BME280;63015;45.378;20.360;2023-12-07T01:54:27;100650.06;;;1.93;83.09
74542;BME280;63015;45.378;20.360;2023-12-07T01:56:28;100663.72;;;1.92;83.25
74542;BME280;63015;45.378;20.360;2023-12-07T01:58:30;100651.47;;;2.08;82.70
74542;BME280;63015;45.378;20.360;2023-12-07T02:00:31;100654.94;;;2.10;82.55
74542;BME280;63015;45.378;20.360;2023-12-07T02:02:33;100650.47;;;2.04;82.83
74542;BME280;63015;45.378;20.360;2023-12-07T02:04:35;100653.50;;;1.94;83.40
74542;BME280;63015;45.378;20.360;2023-12-07T02:06:36;100646.75;;;1.96;83.38
74542;BME280;63015;45.378;20.360;2023-12-07T02:08:36;100659.88;;;2.04;82.94
74542;BME280;63015;45.378;20.360;2023-12-07T02:10:41;100655.56;;;2.03;83.15
74542;BME280;63015;45.378;20.360;2023-12-07T02:12:42;100662.59;;;2.08;83.03
74542;BME280;63015;45.378;20.360;2023-12-07T02:14:43;100668.28;;;2.00;83.11
74542;BME280;63015;45.378;20.360;2023-12-07T02:16:48;100655.66;;;2.06;83.12
74542;BME280;63015;45.378;20.360;2023-12-07T02:18:51;100660.94;;;2.09;82.62
74542;BME280;63015;45.378;20.360;2023-12-07T02:21:13;100659.97;;;2.07;82.34
74542;BME280;63015;45.378;20.360;2023-12-07T02:23:17;100656.66;;;2.09;82.71
74542;BME280;63015;45.378;20.360;2023-12-07T02:25:19;100656.59;;;2.08;82.59
74542;BME280;63015;45.378;20.360;2023-12-07T02:27:53;100662.50;;;2.05;82.83
74542;BME280;63015;45.378;20.360;2023-12-07T02:29:53;100656.47;;;2.05;83.28
74542;BME280;63015;45.378;20.360;2023-12-07T02:31:54;100654.84;;;2.07;82.83
74542;BME280;63015;45.378;20.360;2023-12-07T02:33:55;100666.84;;;2.06;82.80
74542;BME280;63015;45.378;20.360;2023-12-07T02:35:56;100670.25;;;2.07;83.01
74542;BME280;63015;45.378;20.360;2023-12-07T02:37:57;100672.66;;;2.02;82.86
74542;BME280;63015;45.378;20.360;2023-12-07T02:39:58;100669.28;;;2.03;83.19
74542;BME280;63015;45.378;20.360;2023-12-07T02:41:59;100671.59;;;1.97;83.26
74542;BME280;63015;45.378;20.360;2023-12-07T02:44:00;100666.97;;;2.11;82.76
74542;BME280;63015;45.378;20.360;2023-12-07T02:46:02;100666.97;;;2.11;82.68
74542;BME280;63015;45.378;20.360;2023-12-07T02:48:03;100678.44;;;2.19;82.46
74542;BME280;63015;45.378;20.360;2023-12-07T02:50:06;100675.41;;;2.07;82.55
74542;BME280;63015;45.378;20.360;2023-12-07T02:52:07;100680.75;;;2.11;82.71
74542;BME280;63015;45.378;20.360;2023-12-07T02:54:07;100684.28;;;2.15;82.57
74542;BME280;63015;45.378;20.360;2023-12-07T02:56:08;100685.16;;;2.16;nan
74542;BME280;63015;45.378;20.360;2023-12-07T02:58:09;100685.97;;;2.14;82.42
74542;BME280;63015;45.378;20.360;2023-12-07T03:00:09;100687.03;;;2.20;82.07
74542;BME280;63015;45.378;20.360;2023-12-07T03:02:12;100688.78;;;2.21;82.00
74542;BME280;63015;45.378;20.360;2023-12-07T03:04:13;100680.13;;;2.19;82.16
74542;BME280;63015;45.378;20.360;2023-12-07T03:06:13;100684.28;;;2.15;82.34
74542;BME280;63015;45.378;20.360;2023-12-07T03:08:16;100683.22;;;2.10;82.22
74542;BME280;63015;45.378;20.360;2023-12-07T03:10:16;100684.47;;;2.20;82.32
74542;BME280;63015;45.378;20.360;2023-12-07T03:12:17;100688.72;;;2.19;82.11
74542;BME280;63015;45.378;20.360;2023-12-07T03:14:17;100685.22;;;2.17;82.13
74542;BME280;63015;45.378;20.360;2023-12-07T03:16:19;100684.47;;;2.20;82.33
74542;BME280;63015;45.378;20.360;2023-12-07T03:18:20;100688.13;;;2.26;81.87
74542;BME280;63015;45.378;20.360;2023-12-07T03:20:21;100692.34;;;2.24;82.00
74542;BME280;63015;45.378;20.360;2023-12-07T03:22:21;100691.34;;;2.21;81.98
74542;BME280;63015;45.378;20.360;2023-12-07T03:24:22;100686.09;;;2.18;81.91
74542;BME280;63015;45.378;20.360;2023-12-07T03:26:22;100688.03;;;2.23;81.55
74542;BME280;63015;45.378;20.360;2023-12-07T03:28:23;100689.78;;;2.24;81.40
74542;BME280;63015;45.378;20.360;2023-12-07T03:30:23;100696.50;;;1.98;82.45
74542;BME280;63015;45.378;20.360;2023-12-07T03:32:24;100697.97;;;2.14;82.47
74542;BME280;63015;45.378;20.360;2023-12-07T03:34:25;100691.84;;;2.10;82.56
74542;BME280;63015;45.378;20.360;2023-12-07T03:36:25;100694.44;;;2.12;82.24
74542;BME280;63015;45.378;20.360;2023-12-07T03:38:26;100700.53;;;2.14;82.54
74542;BME280;63015;45.378;20.360;2023-12-07T03:40:26;100702.22;;;2.13;82.44
74542;BME280;63015;45.378;20.360;2023-12-07T03:42:27;100703.28;;;2.19;82.25
74542;BME280;63015;45.378;20.360;2023-12-07T03:44:27;100696.72;;;2.27;81.63
74542;BME280;63015;45.378;20.360;2023-12-07T03:46:28;100693.16;;;2.23;81.88
74542;BME280;63015;45.378;20.360;2023-12-07T03:48:28;100708.59;;;2.23;82.08
74542;BME280;63015;45.378;20.360;2023-12-07T03:50:29;100711.78;;;2.18;82.16
74542;BME280;63015;45.378;20.360;2023-12-07T03:52:29;100716.53;;;2.07;82.34
74542;BME280;63015;45.378;20.360;2023-12-07T03:54:30;100703.78;;;2.10;82.28
74542;BME280;63015;45.378;20.360;2023-12-07T03:56:32;100704.03;;;2.16;nan
74542;BME280;63015;45.378;20.360;2023-12-07T03:58:33;100705.75;;;2.16;82.35
74542;BME280;63015;45.378;20.360;2023-12-07T04:00:33;100704.50;;;2.06;82.20
74542;BME280;63015;45.378;20.360;2023-12-07T04:02:34;100705.75;;;2.16;82.04
74542;BME280;63015;45.378;20.360;2023-12-07T04:04:35;100706.75;;;2.19;82.08
74542;BME280;63015;45.378;20.360;2023-12-07T04:06:35;100706.03;;;2.23;81.83
74542;BME280;63015;45.378;20.360;2023-12-07T04:08:36;100713.78;;;2.25;81.87
74542;BME280;63015;45.378;20.360;2023-12-07T04:10:36;100716.19;;;2.20;82.10
74542;BME280;63015;45.378;20.360;2023-12-07T04:12:37;100718.75;;;2.20;82.08
74542;BME280;63015;45.378;20.360;2023-12-07T04:14:38;100716.13;;;2.19;82.07
74542;BME280;63015;45.378;20.360;2023-12-07T04:16:38;100709.94;;;2.13;82.01
74542;BME280;63015;45.378;20.360;2023-12-07T04:18:39;100720.63;;;2.24;81.93
74542;BME280;63015;45.378;20.360;2023-12-07T04:20:39;100721.41;;;2.22;82.32
74542;BME280;63015;45.378;20.360;2023-12-07T04:22:40;100715.69;;;2.30;81.70
74542;BME280;63015;45.378;20.360;2023-12-07T04:24:41;100712.22;;;2.28;81.86
74542;BME280;63015;45.378;20.360;2023-12-07T04:26:42;100716.66;;;2.33;81.87
74542;BME280;63015;45.378;20.360;2023-12-07T04:28:42;100711.44;;;2.31;81.79
74542;BME280;63015;45.378;20.360;2023-12-07T04:30:43;100716.41;;;2.26;82.15
74542;BME280;63015;45.378;20.360;2023-12-07T04:32:43;100717.59;;;2.35;81.70
74542;BME280;63015;45.378;20.360;2023-12-07T04:34:44;100711.50;;;2.33;81.58
74542;BME280;63015;45.378;20.360;2023-12-07T04:36:45;100729.41;;;2.29;82.09
74542;BME280;63015;45.378;20.360;2023-12-07T04:38:45;100729.03;;;2.20;82.24
74542;BME280;63015;45.378;20.360;2023-12-07T04:40:46;100724.78;;;2.21;82.56
74542;BME280;63015;45.378;20.360;2023-12-07T04:42:46;100721.31;;;2.20;82.36
74542;BME280;63015;45.378;20.360;2023-12-07T04:44:47;100722.97;;;2.18;82.60
74542;BME280;63015;45.378;20.360;2023-12-07T04:46:47;100729.13;;;2.22;82.82
74542;BME280;63015;45.378;20.360;2023-12-07T04:48:48;100730.69;;;2.18;82.99
74542;BME280;63015;45.378;20.360;2023-12-07T04:50:48;100736.19;;;2.27;82.43
74542;BME280;63015;45.378;20.360;2023-12-07T04:52:49;100737.81;;;2.25;82.36
74542;BME280;63015;45.378;20.360;2023-12-07T04:54:50;100736.94;;;2.25;82.67
74542;BME280;63015;45.378;20.360;2023-12-07T04:56:50;100735.22;;;2.25;82.64
74542;BME280;63015;45.378;20.360;2023-12-07T04:58:51;100737.75;;;2.24;82.67
74542;BME280;63015;45.378;20.360;2023-12-07T05:00:51;100749.59;;;2.20;82.92
74542;BME280;63015;45.378;20.360;2023-12-07T05:02:52;100740.31;;;2.24;82.76
74542;BME280;63015;45.378;20.360;2023-12-07T05:04:52;100738.84;;;2.30;82.50
74542;BME280;63015;45.378;20.360;2023-12-07T05:06:53;100748.78;;;2.21;82.71
74542;BME280;63015;45.378;20.360;2023-12-07T05:08:53;100745.50;;;2.25;82.74
74542;BME280;63015;45.378;20.360;2023-12-07T05:10:55;100746.47;;;2.27;82.51
74542;BME280;63015;45.378;20.360;2023-12-07T05:12:55;100755.59;;;2.19;82.81
74542;BME280;63015;45.378;20.360;2023-12-07T05:14:57;100758.28;;;2.22;82.79
74542;BME280;63015;45.378;20.360;2023-12-07T05:16:58;100766.03;;;2.24;82.67
74542;BME280;63015;45.378;20.360;2023-12-07T05:18:58;100761.88;;;2.27;82.44
74542;BME280;63015;45.378;20.360;2023-12-07T05:20:59;100758.91;;;2.17;82.74
74542;BME280;63015;45.378;20.360;2023-12-07T05:23:00;100766.25;;;2.07;83.08
74542;BME280;63015;45.378;20.360;2023-12-07T05:25:00;100767.31;;;2.12;83.36
74542;BME280;63015;45.378;20.360;2023-12-07T05:27:01;100765.63;;;2.13;83.64
74542;BME280;63015;45.378;20.360;2023-12-07T05:29:04;100762.63;;;2.02;83.90
74542;BME280;63015;45.378;20.360;2023-12-07T05:31:04;100769.97;;;1.93;84.32
74542;BME280;63015;45.378;20.360;2023-12-07T05:33:05;100768.53;;;2.00;84.22
74542;BME280;63015;45.378;20.360;2023-12-07T05:35:06;100766.03;;;2.01;83.97
74542;BME280;63015;45.378;20.360;2023-12-07T05:37:07;100780.56;;;2.01;83.98
74542;BME280;63015;45.378;20.360;2023-12-07T05:39:08;100774.34;;;2.17;83.68
74542;BME280;63015;45.378;20.360;2023-12-07T05:41:08;100774.41;;;2.18;83.43
74542;BME280;63015;45.378;20.360;2023-12-07T05:43:09;100777.78;;;2.17;83.45
74542;BME280;63015;45.378;20.360;2023-12-07T05:45:10;100777.47;;;2.09;83.45
74542;BME280;63015;45.378;20.360;2023-12-07T05:47:11;100769.06;;;2.13;83.57
74542;BME280;63015;45.378;20.360;2023-12-07T05:49:11;100783.50;;;2.10;83.50
74542;BME280;63015;45.378;20.360;2023-12-07T05:51:16;100783.56;;;2.11;83.69
74542;BME280;63015;45.378;20.360;2023-12-07T05:53:17;100786.31;;;2.16;83.56
74542;BME280;63015;45.378;20.360;2023-12-07T05:55:17;100784.69;;;2.18;83.49
74542;BME280;63015;45.378;20.360;2023-12-07T05:57:18;100781.41;;;2.22;83.16
74542;BME280;63015;45.378;20.360;2023-12-07T05:59:19;100787.31;;;2.20;83.53
74542;BME280;63015;45.378;20.360;2023-12-07T06:01:19;100788.38;;;2.25;83.27
74542;BME280;63015;45.378;20.360;2023-12-07T06:03:20;100783.19;;;2.23;83.28
74542;BME280;63015;45.378;20.360;2023-12-07T06:05:21;100785.75;;;2.23;83.00
74542;BME280;63015;45.378;20.360;2023-12-07T06:07:21;100778.03;;;2.23;83.58
74542;BME280;63015;45.378;20.360;2023-12-07T06:09:22;100776.44;;;2.04;83.94
74542;BME280;63015;45.378;20.360;2023-12-07T06:11:22;100789.69;;;2.15;83.89
74542;BME280;63015;45.378;20.360;2023-12-07T06:13:23;100797.00;;;2.04;84.08
74542;BME280;63015;45.378;20.360;2023-12-07T06:15:24;100793.88;;;2.11;84.09
74542;BME280;63015;45.378;20.360;2023-12-07T06:17:25;100794.22;;;2.21;83.71
74542;BME280;63015;45.378;20.360;2023-12-07T06:19:25;100788.94;;;2.18;83.83
74542;BME280;63015;45.378;20.360;2023-12-07T06:21:26;100799.13;;;2.14;84.35
74542;BME280;63015;45.378;20.360;2023-12-07T06:23:29;100791.44;;;2.16;83.93
74542;BME280;63015;45.378;20.360;2023-12-07T06:25:30;100792.66;;;2.24;83.78
74542;BME280;63015;45.378;20.360;2023-12-07T06:27:31;100798.47;;;2.20;83.85
74542;BME280;63015;45.378;20.360;2023-12-07T06:29:31;100800.13;;;2.18;84.44
74542;BME280;63015;45.378;20.360;2023-12-07T06:31:32;100794.31;;;2.24;84.16
74542;BME280;63015;45.378;20.360;2023-12-07T06:33:33;100788.13;;;2.19;83.92
74542;BME280;63015;45.378;20.360;2023-12-07T06:35:35;100791.66;;;2.21;84.38
74542;BME280;63015;45.378;20.360;2023-12-07T06:37:35;100801.94;;;2.21;84.80
74542;BME280;63015;45.378;20.360;2023-12-07T06:39:36;100795.53;;;2.11;84.80
74542;BME280;63015;45.378;20.360;2023-12-07T06:41:37;100811.25;;;2.19;84.55
74542;BME280;63015;45.378;20.360;2023-12-07T06:43:38;100810.34;;;2.17;84.92
74542;BME280;63015;45.378;20.360;2023-12-07T06:45:38;100810.75;;;2.27;84.88
74542;BME280;63015;45.378;20.360;2023-12-07T06:47:39;100809.88;;;2.27;84.68
74542;BME280;63015;45.378;20.360;2023-12-07T06:49:40;100812.50;;;2.28;84.42
74542;BME280;63015;45.378;20.360;2023-12-07T06:51:40;100818.81;;;2.37;84.57
74542;BME280;63015;45.378;20.360;2023-12-07T06:53:41;100823.09;;;2.36;84.34
74542;BME280;63015;45.378;20.360;2023-12-07T06:55:42;100820.06;;;2.46;84.16
74542;BME280;63015;45.378;20.360;2023-12-07T06:57:43;100816.59;;;2.46;84.37
74542;BME280;63015;45.378;20.360;2023-12-07T06:59:43;100829.69;;;2.52;84.12
74542;BME280;63015;45.378;20.360;2023-12-07T07:01:44;100822.78;;;2.51;84.11
74542;BME280;63015;45.378;20.360;2023-12-07T07:03:45;100822.13;;;2.55;84.04
74542;BME280;63015;45.378;20.360;2023-12-07T07:05:45;100830.28;;;2.68;83.71
74542;BME280;63015;45.378;20.360;2023-12-07T07:07:46;100817.19;;;2.61;83.72
74542;BME280;63015;45.378;20.360;2023-12-07T07:09:46;100823.50;;;2.70;83.64
74542;BME280;63015;45.378;20.360;2023-12-07T07:11:48;100829.38;;;2.66;83.37
74542;BME280;63015;45.378;20.360;2023-12-07T07:13:48;100821.19;;;2.76;83.01
74542;BME280;63015;45.378;20.360;2023-12-07T07:15:49;100823.13;;;2.83;82.85
74542;BME280;63015;45.378;20.360;2023-12-07T07:17:49;100824.03;;;2.84;82.93
74542;BME280;63015;45.378;20.360;2023-12-07T07:19:50;100826.03;;;2.68;83.63
74542;BME280;63015;45.378;20.360;2023-12-07T07:21:51;100825.09;;;2.66;84.19
74542;BME280;63015;45.378;20.360;2023-12-07T07:23:51;100818.25;;;2.67;84.12
74542;BME280;63015;45.378;20.360;2023-12-07T07:25:52;100827.25;;;2.55;84.30
74542;BME280;63015;45.378;20.360;2023-12-07T07:27:52;100823.56;;;2.71;84.40
74542;BME280;63015;45.378;20.360;2023-12-07T07:29:54;100824.13;;;2.87;83.99
74542;BME280;63015;45.378;20.360;2023-12-07T07:31:55;100818.06;;;2.85;83.54
74542;BME280;63015;45.378;20.360;2023-12-07T07:33:56;100831.13;;;2.67;83.94
74542;BME280;63015;45.378;20.360;2023-12-07T07:35:56;100826.59;;;2.84;83.92
74542;BME280;63015;45.378;20.360;2023-12-07T07:37:57;100830.38;;;2.69;83.88
74542;BME280;63015;45.378;20.360;2023-12-07T07:39:57;100832.00;;;2.90;83.74
74542;BME280;63015;45.378;20.360;2023-12-07T07:42:00;100825.84;;;2.86;83.61
74542;BME280;63015;45.378;20.360;2023-12-07T07:44:00;100830.47;;;2.95;83.36
74542;BME280;63015;45.378;20.360;2023-12-07T07:46:02;100833.63;;;2.88;83.69
74542;BME280;63015;45.378;20.360;2023-12-07T07:48:03;100835.44;;;2.90;83.21
74542;BME280;63015;45.378;20.360;2023-12-07T07:50:05;100835.59;;;2.95;83.37
74542;BME280;63015;45.378;20.360;2023-12-07T07:52:06;100832.00;;;2.90;83.48
74542;BME280;63015;45.378;20.360;2023-12-07T07:54:06;100834.16;;;2.79;83.86
74542;BME280;63015;45.378;20.360;2023-12-07T07:56:07;100831.81;;;2.85;84.15
74542;BME280;63015;45.378;20.360;2023-12-07T07:58:09;100840.94;;;2.77;83.88
74542;BME280;63015;45.378;20.360;2023-12-07T08:00:10;100838.47;;;3.03;83.65
74542;BME280;63015;45.378;20.360;2023-12-07T08:02:11;100832.88;;;3.15;83.23
74542;BME280;63015;45.378;20.360;2023-12-07T08:04:11;100835.59;;;2.95;83.38
74542;BME280;63015;45.378;20.360;2023-12-07T08:06:12;100837.25;;;2.93;83.55
74542;BME280;63015;45.378;20.360;2023-12-07T08:08:13;100827.50;;;3.08;82.98
74542;BME280;63015;45.378;20.360;2023-12-07T08:10:13;100830.88;;;3.07;83.25
74542;BME280;63015;45.378;20.360;2023-12-07T08:12:14;100837.91;;;3.11;83.27
74542;BME280;63015;45.378;20.360;2023-12-07T08:14:14;100843.28;;;3.18;82.92
74542;BME280;63015;45.378;20.360;2023-12-07T08:16:15;100838.16;;;3.19;82.97
74542;BME280;63015;45.378;20.360;2023-12-07T08:18:16;100841.97;;;3.29;82.77
74542;BME280;63015;45.378;20.360;2023-12-07T08:20:16;100849.00;;;3.35;82.14
74542;BME280;63015;45.378;20.360;2023-12-07T08:22:17;100846.41;;;3.33;81.73
74542;BME280;63015;45.378;20.360;2023-12-07T08:24:17;100847.09;;;3.05;nan
74542;BME280;63015;45.378;20.360;2023-12-07T08:26:18;100849.25;;;3.17;82.60
74542;BME280;63015;45.378;20.360;2023-12-07T08:28:18;100845.16;;;2.98;82.72
74542;BME280;63015;45.378;20.360;2023-12-07T08:30:20;100849.84;;;3.09;82.53
74542;BME280;63015;45.378;20.360;2023-12-07T08:32:20;100856.41;;;3.25;82.55
74542;BME280;63015;45.378;20.360;2023-12-07T08:34:21;100861.00;;;3.33;82.26
74542;BME280;63015;45.378;20.360;2023-12-07T08:36:22;100865.72;;;3.46;82.04
74542;BME280;63015;45.378;20.360;2023-12-07T08:38:22;100859.66;;;3.44;81.90
74542;BME280;63015;45.378;20.360;2023-12-07T08:40:23;100862.13;;;3.41;81.74
74542;BME280;63015;45.378;20.360;2023-12-07T08:42:23;100864.88;;;3.45;81.64
74542;BME280;63015;45.378;20.360;2023-12-07T08:44:24;100868.72;;;3.57;81.53
74542;BME280;63015;45.378;20.360;2023-12-07T08:46:24;100873.81;;;3.31;81.71
74542;BME280;63015;45.378;20.360;2023-12-07T08:48:25;100871.06;;;3.51;81.18
74542;BME280;63015;45.378;20.360;2023-12-07T08:50:26;100868.63;;;3.55;81.19
74542;BME280;63015;45.378;20.360;2023-12-07T08:52:26;100873.22;;;3.64;80.95
74542;BME280;63015;45.378;20.360;2023-12-07T08:54:27;100872.47;;;3.42;81.13
74542;BME280;63015;45.378;20.360;2023-12-07T08:56:28;100869.25;;;3.48;81.29
74542;BME280;63015;45.378;20.360;2023-12-07T08:58:28;100870.44;;;3.58;81.44
74542;BME280;63015;45.378;20.360;2023-12-07T09:00:31;100869.84;;;3.65;81.15
74542;BME280;63015;45.378;20.360;2023-12-07T09:02:31;100866.19;;;3.58;80.76
74542;BME280;63015;45.378;20.360;2023-12-07T09:04:32;100856.47;;;3.51;81.39
74542;BME280;63015;45.378;20.360;2023-12-07T09:06:33;100869.38;;;3.77;81.16
74542;BME280;63015;45.378;20.360;2023-12-07T09:08:33;100869.28;;;3.74;80.89
74542;BME280;63015;45.378;20.360;2023-12-07T09:10:34;100859.09;;;3.53;80.89
74542;BME280;63015;45.378;20.360;2023-12-07T09:12:34;100863.22;;;3.73;80.71
74542;BME280;63015;45.378;20.360;2023-12-07T09:14:36;100860.59;;;3.72;80.47
74542;BME280;63015;45.378;20.360;2023-12-07T09:16:45;100861.59;;;3.75;80.54
74542;BME280;63015;45.378;20.360;2023-12-07T09:18:46;100859.09;;;3.78;80.34
74542;BME280;63015;45.378;20.360;2023-12-07T09:20:47;100860.09;;;3.82;80.35
74542;BME280;63015;45.378;20.360;2023-12-07T09:22:47;100857.47;;;3.81;80.30
74542;BME280;63015;45.378;20.360;2023-12-07T09:24:48;100857.53;;;3.58;80.74
74542;BME280;63015;45.378;20.360;2023-12-07T09:26:49;100857.69;;;3.87;80.52
74542;BME280;63015;45.378;20.360;2023-12-07T09:28:49;100848.97;;;3.83;80.35
74542;BME280;63015;45.378;20.360;2023-12-07T09:30:50;100847.16;;;3.81;80.72
74542;BME280;63015;45.378;20.360;2023-12-07T09:32:52;100844.88;;;3.64;81.01
74542;BME280;63015;45.378;20.360;2023-12-07T09:34:52;100846.59;;;3.64;81.06
74542;BME280;63015;45.378;20.360;2023-12-07T09:37:09;100842.94;;;3.83;80.59
74542;BME280;63015;45.378;20.360;2023-12-07T09:39:09;100842.50;;;3.70;80.63
74542;BME280;63015;45.378;20.360;2023-12-07T09:41:10;100842.84;;;3.55;80.90
74542;BME280;63015;45.378;20.360;2023-12-07T09:43:12;100838.09;;;3.66;81.57
74542;BME280;63015;45.378;20.360;2023-12-07T09:45:14;100847.75;;;3.73;80.76
74542;BME280;63015;45.378;20.360;2023-12-07T09:47:17;100836.06;;;3.83;80.67
74542;BME280;63015;45.378;20.360;2023-12-07T09:49:18;100836.53;;;3.97;80.39
74542;BME280;63015;45.378;20.360;2023-12-07T09:51:20;100836.63;;;4.00;79.93
74542;BME280;63015;45.378;20.360;2023-12-07T09:53:20;100840.44;;;3.86;79.65
74542;BME280;63015;45.378;20.360;2023-12-07T09:55:21;100833.94;;;3.97;79.96
74542;BME280;63015;45.378;20.360;2023-12-07T09:57:22;100839.94;;;3.96;80.10
74542;BME280;63015;45.378;20.360;2023-12-07T09:59:23;100831.38;;;3.97;80.02
74542;BME280;63015;45.378;20.360;2023-12-07T10:01:30;100844.09;;;4.20;79.41
74542;BME280;63015;45.378;20.360;2023-12-07T10:03:31;100839.41;;;4.06;79.53
74542;BME280;63015;45.378;20.360;2023-12-07T10:05:31;100838.13;;;3.93;79.17
74542;BME280;63015;45.378;20.360;2023-12-07T10:07:34;100839.97;;;3.98;79.31
74542;BME280;63015;45.378;20.360;2023-12-07T10:09:40;100841.28;;;3.85;79.08
74542;BME280;63015;45.378;20.360;2023-12-07T10:11:41;100837.91;;;3.87;79.16
74542;BME280;63015;45.378;20.360;2023-12-07T10:13:44;100832.66;;;3.84;79.13
74542;BME280;63015;45.378;20.360;2023-12-07T10:15:45;100841.19;;;3.82;78.84
74542;BME280;63015;45.378;20.360;2023-12-07T10:17:50;100834.56;;;3.90;78.89
74542;BME280;63015;45.378;20.360;2023-12-07T10:20:09;100828.38;;;3.85;78.89
74542;BME280;63015;45.378;20.360;2023-12-07T10:22:13;100832.09;;;3.93;79.10
74542;BME280;63015;45.378;20.360;2023-12-07T10:24:16;100833.31;;;4.04;79.00
74542;BME280;63015;45.378;20.360;2023-12-07T10:26:17;100835.59;;;3.95;78.99
74542;BME280;63015;45.378;20.360;2023-12-07T10:28:20;100834.44;;;3.85;78.54
74542;BME280;63015;45.378;20.360;2023-12-07T10:30:21;100835.84;;;4.03;78.85
74542;BME280;63015;45.378;20.360;2023-12-07T10:32:25;100832.72;;;3.86;78.23
74542;BME280;63015;45.378;20.360;2023-12-07T10:34:27;100829.94;;;3.79;78.53